sensor_id;sensor_type;location;lat;lon;timestamp;P1;durP1;ratioP1;P2;durP2;ratioP2
13795;SDS011;40911;51.552;9.874;2022-10-31T00:00:29;11.63;;;5.72;;
13795;SDS011;40911;51.552;9.874;2022-10-31T00:02:57;13.73;;;5.97;;
13795;SDS011;40911;51.552;9.874;2022-10-31T00:05:19;11.95;;;5.82;;
13795;SDS011;40911;51.552;9.874;2022-10-31T00:10:02;12.52;;;5.50;;
13795;SDS011;40911;51.552;9.874;2022-10-31T00:12:25;10.48;;;6.03;;
13795;SDS011;40911;51.552;9.874;2022-10-31T00:14:47;9.43;;;5.72;;
13795;SDS011;40911;51.552;9.874;2022-10-31T00:19:32;11.48;;;5.63;;
13795;SDS011;40911;51.552;9.874;2022-10-31T00:24:15;11.15;;;5.93;;
13795;SDS011;40911;51.552;9.874;2022-10-31T00:26:37;11.65;;;5.85;;
13795;SDS011;40911;51.552;9.874;2022-10-31T00:31:21;12.43;;;5.80;;
13795;SDS011;40911;51.552;9.874;2022-10-31T00:36:06;15.10;;;6.20;;
13795;SDS011;40911;51.552;9.874;2022-10-31T00:38:31;10.23;;;5.68;;
13795;SDS011;40911;51.552;9.874;2022-10-31T00:40:53;10.15;;;6.22;;
13795;SDS011;40911;51.552;9.874;2022-10-31T00:45:37;15.50;;;6.55;;
13795;SDS011;40911;51.552;9.874;2022-10-31T00:50:22;13.75;;;6.70;;
13795;SDS011;40911;51.552;9.874;2022-10-31T00:52:43;10.45;;;5.63;;
13795;SDS011;40911;51.552;9.874;2022-10-31T00:57:27;12.20;;;5.97;;
13795;SDS011;40911;51.552;9.874;2022-10-31T01:02:10;12.55;;;6.43;;
13795;SDS011;40911;51.552;9.874;2022-10-31T01:04:32;9.00;;;6.28;;
13795;SDS011;40911;51.552;9.874;2022-10-31T01:09:17;14.48;;;5.82;;
13795;SDS011;40911;51.552;9.874;2022-10-31T01:11:39;13.38;;;6.47;;
13795;SDS011;40911;51.552;9.874;2022-10-31T01:16:23;12.95;;;5.88;;
13795;SDS011;40911;51.552;9.874;2022-10-31T01:18:45;12.85;;;5.97;;
13795;SDS011;40911;51.552;9.874;2022-10-31T01:21:09;8.57;;;5.82;;
13795;SDS011;40911;51.552;9.874;2022-10-31T01:23:33;11.60;;;5.85;;
13795;SDS011;40911;51.552;9.874;2022-10-31T01:25:59;14.05;;;6.30;;
13795;SDS011;40911;51.552;9.874;2022-10-31T01:28:25;9.50;;;6.20;;
13795;SDS011;40911;51.552;9.874;2022-10-31T01:33:08;9.30;;;5.75;;
13795;SDS011;40911;51.552;9.874;2022-10-31T01:35:30;13.25;;;5.97;;
13795;SDS011;40911;51.552;9.874;2022-10-31T01:37:52;9.07;;;6.20;;
13795;SDS011;40911;51.552;9.874;2022-10-31T01:40:15;10.45;;;5.90;;
13795;SDS011;40911;51.552;9.874;2022-10-31T01:42:37;11.50;;;5.57;;
13795;SDS011;40911;51.552;9.874;2022-10-31T01:47:23;10.57;;;5.97;;
13795;SDS011;40911;51.552;9.874;2022-10-31T01:49:56;12.23;;;5.97;;
13795;SDS011;40911;51.552;9.874;2022-10-31T01:52:20;13.90;;;5.80;;
13795;SDS011;40911;51.552;9.874;2022-10-31T01:54:46;10.02;;;6.25;;
13795;SDS011;40911;51.552;9.874;2022-10-31T01:57:12;12.25;;;6.40;;
13795;SDS011;40911;51.552;9.874;2022-10-31T01:59:36;13.95;;;6.53;;
13795;SDS011;40911;51.552;9.874;2022-10-31T02:02:04;11.80;;;6.00;;
13795;SDS011;40911;51.552;9.874;2022-10-31T02:04:26;11.45;;;6.28;;
13795;SDS011;40911;51.552;9.874;2022-10-31T02:06:51;9.27;;;5.78;;
13795;SDS011;40911;51.552;9.874;2022-10-31T02:09:17;13.38;;;5.60;;
13795;SDS011;40911;51.552;9.874;2022-10-31T02:11:43;11.65;;;5.65;;
13795;SDS011;40911;51.552;9.874;2022-10-31T02:14:07;9.80;;;5.80;;
13795;SDS011;40911;51.552;9.874;2022-10-31T02:16:29;10.70;;;5.72;;
13795;SDS011;40911;51.552;9.874;2022-10-31T02:21:15;8.02;;;5.90;;
13795;SDS011;40911;51.552;9.874;2022-10-31T02:26:57;9.57;;;5.68;;
13795;SDS011;40911;51.552;9.874;2022-10-31T02:32:31;12.45;;;5.93;;
13795;SDS011;40911;51.552;9.874;2022-10-31T02:37:26;13.00;;;6.07;;
13795;SDS011;40911;51.552;9.874;2022-10-31T02:39:56;14.23;;;6.47;;
13795;SDS011;40911;51.552;9.874;2022-10-31T02:42:28;19.15;;;7.22;;
13795;SDS011;40911;51.552;9.874;2022-10-31T02:44:58;11.50;;;6.18;;
13795;SDS011;40911;51.552;9.874;2022-10-31T02:47:27;8.95;;;6.20;;
13795;SDS011;40911;51.552;9.874;2022-10-31T02:49:54;13.68;;;6.25;;
13795;SDS011;40911;51.552;9.874;2022-10-31T02:52:21;13.00;;;6.25;;
13795;SDS011;40911;51.552;9.874;2022-10-31T02:54:47;13.07;;;6.55;;
13795;SDS011;40911;51.552;9.874;2022-10-31T02:57:09;13.20;;;6.18;;
13795;SDS011;40911;51.552;9.874;2022-10-31T03:01:56;11.77;;;6.55;;
13795;SDS011;40911;51.552;9.874;2022-10-31T03:04:43;9.90;;;6.40;;
13795;SDS011;40911;51.552;9.874;2022-10-31T03:07:28;10.98;;;6.60;;
13795;SDS011;40911;51.552;9.874;2022-10-31T03:10:02;11.10;;;6.43;;
13795;SDS011;40911;51.552;9.874;2022-10-31T03:12:29;10.88;;;6.50;;
13795;SDS011;40911;51.552;9.874;2022-10-31T03:14:56;15.13;;;7.38;;
13795;SDS011;40911;51.552;9.874;2022-10-31T03:17:25;10.90;;;6.70;;
13795;SDS011;40911;51.552;9.874;2022-10-31T03:19:51;14.18;;;7.30;;
13795;SDS011;40911;51.552;9.874;2022-10-31T03:22:19;16.83;;;6.50;;
13795;SDS011;40911;51.552;9.874;2022-10-31T03:24:44;9.52;;;6.47;;
13795;SDS011;40911;51.552;9.874;2022-10-31T03:27:08;10.85;;;7.00;;
13795;SDS011;40911;51.552;9.874;2022-10-31T03:29:35;9.98;;;6.93;;
13795;SDS011;40911;51.552;9.874;2022-10-31T03:31:59;9.82;;;6.35;;
13795;SDS011;40911;51.552;9.874;2022-10-31T03:34:23;13.27;;;7.10;;
13795;SDS011;40911;51.552;9.874;2022-10-31T03:36:46;10.52;;;6.75;;
13795;SDS011;40911;51.552;9.874;2022-10-31T03:39:13;13.32;;;7.22;;
13795;SDS011;40911;51.552;9.874;2022-10-31T03:41:38;15.18;;;7.82;;
13795;SDS011;40911;51.552;9.874;2022-10-31T03:44:03;13.85;;;7.85;;
13795;SDS011;40911;51.552;9.874;2022-10-31T03:46:29;13.48;;;7.75;;
13795;SDS011;40911;51.552;9.874;2022-10-31T03:48:51;12.20;;;6.57;;
13795;SDS011;40911;51.552;9.874;2022-10-31T03:51:14;11.80;;;6.28;;
13795;SDS011;40911;51.552;9.874;2022-10-31T03:53:44;12.15;;;6.80;;
13795;SDS011;40911;51.552;9.874;2022-10-31T03:56:15;11.07;;;6.88;;
13795;SDS011;40911;51.552;9.874;2022-10-31T03:58:42;10.82;;;6.57;;
13795;SDS011;40911;51.552;9.874;2022-10-31T04:01:09;11.30;;;6.57;;
13795;SDS011;40911;51.552;9.874;2022-10-31T04:03:36;14.05;;;7.18;;
13795;SDS011;40911;51.552;9.874;2022-10-31T04:06:00;13.82;;;7.32;;
13795;SDS011;40911;51.552;9.874;2022-10-31T04:08:26;14.95;;;7.35;;
13795;SDS011;40911;51.552;9.874;2022-10-31T04:10:51;12.18;;;7.43;;
13795;SDS011;40911;51.552;9.874;2022-10-31T04:13:17;11.13;;;7.28;;
13795;SDS011;40911;51.552;9.874;2022-10-31T04:15:44;15.43;;;7.07;;
13795;SDS011;40911;51.552;9.874;2022-10-31T04:18:06;9.38;;;7.03;;
13795;SDS011;40911;51.552;9.874;2022-10-31T04:20:29;13.88;;;8.35;;
13795;SDS011;40911;51.552;9.874;2022-10-31T04:22:52;16.90;;;7.68;;
13795;SDS011;40911;51.552;9.874;2022-10-31T04:27:35;11.57;;;6.95;;
13795;SDS011;40911;51.552;9.874;2022-10-31T04:32:20;15.30;;;7.07;;
13795;SDS011;40911;51.552;9.874;2022-10-31T04:37:03;19.00;;;7.47;;
13795;SDS011;40911;51.552;9.874;2022-10-31T04:39:25;17.85;;;7.35;;
13795;SDS011;40911;51.552;9.874;2022-10-31T04:44:08;11.07;;;6.88;;
13795;SDS011;40911;51.552;9.874;2022-10-31T04:46:32;11.95;;;8.13;;
13795;SDS011;40911;51.552;9.874;2022-10-31T04:48:53;14.50;;;7.68;;
13795;SDS011;40911;51.552;9.874;2022-10-31T04:51:15;11.95;;;7.47;;
13795;SDS011;40911;51.552;9.874;2022-10-31T04:55:59;18.45;;;7.68;;
13795;SDS011;40911;51.552;9.874;2022-10-31T04:58:20;16.60;;;9.10;;
13795;SDS011;40911;51.552;9.874;2022-10-31T05:03:05;15.10;;;8.27;;
13795;SDS011;40911;51.552;9.874;2022-10-31T05:05:28;16.33;;;8.63;;
13795;SDS011;40911;51.552;9.874;2022-10-31T05:07:51;13.90;;;8.32;;
13795;SDS011;40911;51.552;9.874;2022-10-31T05:10:14;20.52;;;8.95;;
13795;SDS011;40911;51.552;9.874;2022-10-31T05:12:37;15.38;;;8.15;;
13795;SDS011;40911;51.552;9.874;2022-10-31T05:14:59;16.35;;;8.05;;
13795;SDS011;40911;51.552;9.874;2022-10-31T05:19:44;13.43;;;8.35;;
13795;SDS011;40911;51.552;9.874;2022-10-31T05:22:06;15.82;;;8.68;;
13795;SDS011;40911;51.552;9.874;2022-10-31T05:26:49;14.07;;;7.93;;
13795;SDS011;40911;51.552;9.874;2022-10-31T05:31:32;16.75;;;8.57;;
13795;SDS011;40911;51.552;9.874;2022-10-31T05:36:17;13.52;;;8.07;;
13795;SDS011;40911;51.552;9.874;2022-10-31T05:38:39;21.70;;;11.07;;
13795;SDS011;40911;51.552;9.874;2022-10-31T05:43:22;20.83;;;10.25;;
13795;SDS011;40911;51.552;9.874;2022-10-31T05:48:06;16.90;;;10.82;;
13795;SDS011;40911;51.552;9.874;2022-10-31T05:52:55;19.00;;;10.30;;
13795;SDS011;40911;51.552;9.874;2022-10-31T05:55:18;19.77;;;10.85;;
13795;SDS011;40911;51.552;9.874;2022-10-31T05:57:39;18.67;;;10.90;;
13795;SDS011;40911;51.552;9.874;2022-10-31T06:02:24;22.67;;;10.45;;
13795;SDS011;40911;51.552;9.874;2022-10-31T06:04:46;20.48;;;10.48;;
13795;SDS011;40911;51.552;9.874;2022-10-31T06:07:08;22.08;;;10.77;;
13795;SDS011;40911;51.552;9.874;2022-10-31T06:09:32;19.70;;;10.80;;
13795;SDS011;40911;51.552;9.874;2022-10-31T06:11:53;21.55;;;10.63;;
13795;SDS011;40911;51.552;9.874;2022-10-31T06:16:37;21.55;;;10.98;;
13795;SDS011;40911;51.552;9.874;2022-10-31T06:21:20;19.13;;;10.30;;
13795;SDS011;40911;51.552;9.874;2022-10-31T06:26:05;15.70;;;9.82;;
13795;SDS011;40911;51.552;9.874;2022-10-31T06:28:26;17.92;;;10.32;;
13795;SDS011;40911;51.552;9.874;2022-10-31T06:33:10;18.33;;;11.10;;
13795;SDS011;40911;51.552;9.874;2022-10-31T06:37:53;21.63;;;10.27;;
13795;SDS011;40911;51.552;9.874;2022-10-31T06:40:15;17.50;;;9.68;;
13795;SDS011;40911;51.552;9.874;2022-10-31T06:42:39;19.77;;;10.15;;
13795;SDS011;40911;51.552;9.874;2022-10-31T06:45:00;22.25;;;11.48;;
13795;SDS011;40911;51.552;9.874;2022-10-31T06:49:44;21.85;;;10.32;;
13795;SDS011;40911;51.552;9.874;2022-10-31T06:54:27;21.38;;;10.77;;
13795;SDS011;40911;51.552;9.874;2022-10-31T06:59:12;19.55;;;10.77;;
13795;SDS011;40911;51.552;9.874;2022-10-31T07:01:34;18.05;;;10.27;;
13795;SDS011;40911;51.552;9.874;2022-10-31T07:06:17;18.13;;;10.02;;
13795;SDS011;40911;51.552;9.874;2022-10-31T07:08:39;19.42;;;10.70;;
13795;SDS011;40911;51.552;9.874;2022-10-31T07:13:22;20.40;;;10.73;;
13795;SDS011;40911;51.552;9.874;2022-10-31T07:15:47;21.63;;;11.07;;
13795;SDS011;40911;51.552;9.874;2022-10-31T07:18:10;19.63;;;10.50;;
13795;SDS011;40911;51.552;9.874;2022-10-31T07:20:32;19.90;;;10.88;;
13795;SDS011;40911;51.552;9.874;2022-10-31T07:22:54;23.55;;;12.07;;
13795;SDS011;40911;51.552;9.874;2022-10-31T07:27:38;21.73;;;11.98;;
13795;SDS011;40911;51.552;9.874;2022-10-31T07:30:00;25.15;;;11.18;;
13795;SDS011;40911;51.552;9.874;2022-10-31T07:34:45;18.67;;;10.25;;
13795;SDS011;40911;51.552;9.874;2022-10-31T07:37:07;23.65;;;12.10;;
13795;SDS011;40911;51.552;9.874;2022-10-31T07:41:51;20.60;;;11.93;;
13795;SDS011;40911;51.552;9.874;2022-10-31T07:44:12;17.58;;;10.80;;
13795;SDS011;40911;51.552;9.874;2022-10-31T07:46:34;18.13;;;10.60;;
13795;SDS011;40911;51.552;9.874;2022-10-31T07:48:57;18.52;;;9.57;;
13795;SDS011;40911;51.552;9.874;2022-10-31T07:51:19;18.00;;;10.18;;
13795;SDS011;40911;51.552;9.874;2022-10-31T07:56:02;15.50;;;9.57;;
13795;SDS011;40911;51.552;9.874;2022-10-31T07:58:24;20.40;;;10.23;;
13795;SDS011;40911;51.552;9.874;2022-10-31T08:03:09;20.90;;;9.65;;
13795;SDS011;40911;51.552;9.874;2022-10-31T08:05:33;14.77;;;8.98;;
13795;SDS011;40911;51.552;9.874;2022-10-31T08:07:56;14.02;;;8.60;;
13795;SDS011;40911;51.552;9.874;2022-10-31T08:10:18;19.33;;;9.95;;
13795;SDS011;40911;51.552;9.874;2022-10-31T08:12:40;17.45;;;9.48;;
13795;SDS011;40911;51.552;9.874;2022-10-31T08:17:23;16.30;;;9.23;;
13795;SDS011;40911;51.552;9.874;2022-10-31T08:22:08;15.52;;;8.73;;
13795;SDS011;40911;51.552;9.874;2022-10-31T08:24:30;17.42;;;9.27;;
13795;SDS011;40911;51.552;9.874;2022-10-31T08:29:13;14.45;;;8.55;;
13795;SDS011;40911;51.552;9.874;2022-10-31T08:31:35;19.00;;;10.23;;
13795;SDS011;40911;51.552;9.874;2022-10-31T08:36:19;16.38;;;9.75;;
13795;SDS011;40911;51.552;9.874;2022-10-31T08:38:43;17.70;;;9.73;;
13795;SDS011;40911;51.552;9.874;2022-10-31T08:41:05;15.90;;;8.73;;
13795;SDS011;40911;51.552;9.874;2022-10-31T08:43:27;15.80;;;9.88;;
13795;SDS011;40911;51.552;9.874;2022-10-31T08:48:11;16.33;;;9.23;;
13795;SDS011;40911;51.552;9.874;2022-10-31T08:50:35;16.60;;;9.10;;
13795;SDS011;40911;51.552;9.874;2022-10-31T08:53:00;17.15;;;10.07;;
13795;SDS011;40911;51.552;9.874;2022-10-31T08:55:24;20.85;;;11.00;;
13795;SDS011;40911;51.552;9.874;2022-10-31T08:57:46;21.65;;;10.18;;
13795;SDS011;40911;51.552;9.874;2022-10-31T09:00:08;18.60;;;10.30;;
13795;SDS011;40911;51.552;9.874;2022-10-31T09:02:32;19.42;;;10.43;;
13795;SDS011;40911;51.552;9.874;2022-10-31T09:04:55;18.65;;;10.35;;
13795;SDS011;40911;51.552;9.874;2022-10-31T09:07:19;20.60;;;10.05;;
13795;SDS011;40911;51.552;9.874;2022-10-31T09:09:41;17.00;;;9.38;;
13795;SDS011;40911;51.552;9.874;2022-10-31T09:12:05;18.70;;;9.50;;
13795;SDS011;40911;51.552;9.874;2022-10-31T09:14:27;17.20;;;9.68;;
13795;SDS011;40911;51.552;9.874;2022-10-31T09:19:10;21.38;;;10.43;;
13795;SDS011;40911;51.552;9.874;2022-10-31T09:23:53;16.95;;;9.25;;
13795;SDS011;40911;51.552;9.874;2022-10-31T09:26:16;19.27;;;9.75;;
13795;SDS011;40911;51.552;9.874;2022-10-31T09:28:39;23.70;;;10.52;;
13795;SDS011;40911;51.552;9.874;2022-10-31T09:31:04;18.77;;;10.55;;
13795;SDS011;40911;51.552;9.874;2022-10-31T09:35:48;16.90;;;9.30;;
13795;SDS011;40911;51.552;9.874;2022-10-31T09:38:10;22.95;;;9.93;;
13795;SDS011;40911;51.552;9.874;2022-10-31T09:40:35;21.45;;;10.40;;
13795;SDS011;40911;51.552;9.874;2022-10-31T09:43:02;25.60;;;10.50;;
13795;SDS011;40911;51.552;9.874;2022-10-31T09:45:32;19.45;;;11.43;;
13795;SDS011;40911;51.552;9.874;2022-10-31T09:48:03;20.02;;;12.00;;
13795;SDS011;40911;51.552;9.874;2022-10-31T09:50:36;25.20;;;12.07;;
13795;SDS011;40911;51.552;9.874;2022-10-31T09:53:03;21.98;;;12.63;;
13795;SDS011;40911;51.552;9.874;2022-10-31T09:55:31;27.00;;;12.90;;
13795;SDS011;40911;51.552;9.874;2022-10-31T09:57:58;24.63;;;12.27;;
13795;SDS011;40911;51.552;9.874;2022-10-31T10:00:22;23.75;;;12.35;;
13795;SDS011;40911;51.552;9.874;2022-10-31T10:02:46;24.20;;;12.30;;
13795;SDS011;40911;51.552;9.874;2022-10-31T10:05:11;23.17;;;12.60;;
13795;SDS011;40911;51.552;9.874;2022-10-31T10:07:37;25.48;;;13.50;;
13795;SDS011;40911;51.552;9.874;2022-10-31T10:10:11;26.85;;;14.20;;
13795;SDS011;40911;51.552;9.874;2022-10-31T10:12:39;32.42;;;14.75;;
13795;SDS011;40911;51.552;9.874;2022-10-31T10:15:16;25.05;;;14.43;;
13795;SDS011;40911;51.552;9.874;2022-10-31T10:17:56;24.48;;;14.88;;
13795;SDS011;40911;51.552;9.874;2022-10-31T10:20:25;29.90;;;15.50;;
13795;SDS011;40911;51.552;9.874;2022-10-31T10:22:58;31.52;;;16.55;;
13795;SDS011;40911;51.552;9.874;2022-10-31T10:25:32;34.88;;;16.92;;
13795;SDS011;40911;51.552;9.874;2022-10-31T10:28:03;36.75;;;17.60;;
13795;SDS011;40911;51.552;9.874;2022-10-31T10:30:33;33.22;;;16.17;;
13795;SDS011;40911;51.552;9.874;2022-10-31T10:33:03;37.05;;;17.75;;
13795;SDS011;40911;51.552;9.874;2022-10-31T10:35:30;32.60;;;17.90;;
13795;SDS011;40911;51.552;9.874;2022-10-31T10:37:56;34.95;;;18.13;;
13795;SDS011;40911;51.552;9.874;2022-10-31T10:40:21;37.40;;;18.60;;
13795;SDS011;40911;51.552;9.874;2022-10-31T10:42:46;33.90;;;18.15;;
13795;SDS011;40911;51.552;9.874;2022-10-31T10:45:38;37.40;;;19.02;;
13795;SDS011;40911;51.552;9.874;2022-10-31T10:48:23;40.70;;;19.42;;
13795;SDS011;40911;51.552;9.874;2022-10-31T10:50:52;40.88;;;19.45;;
13795;SDS011;40911;51.552;9.874;2022-10-31T10:53:18;38.42;;;20.17;;
13795;SDS011;40911;51.552;9.874;2022-10-31T10:55:56;41.78;;;19.17;;
13795;SDS011;40911;51.552;9.874;2022-10-31T10:58:25;34.53;;;19.65;;
13795;SDS011;40911;51.552;9.874;2022-10-31T11:00:47;36.78;;;19.40;;
13795;SDS011;40911;51.552;9.874;2022-10-31T11:03:09;34.92;;;18.73;;
13795;SDS011;40911;51.552;9.874;2022-10-31T11:05:35;32.92;;;18.40;;
13795;SDS011;40911;51.552;9.874;2022-10-31T11:08:05;33.83;;;18.80;;
13795;SDS011;40911;51.552;9.874;2022-10-31T11:10:27;32.58;;;18.67;;
13795;SDS011;40911;51.552;9.874;2022-10-31T11:13:00;33.05;;;18.77;;
13795;SDS011;40911;51.552;9.874;2022-10-31T11:15:26;38.17;;;17.30;;
13795;SDS011;40911;51.552;9.874;2022-10-31T11:17:49;32.05;;;17.90;;
13795;SDS011;40911;51.552;9.874;2022-10-31T11:20:24;39.95;;;18.23;;
13795;SDS011;40911;51.552;9.874;2022-10-31T11:23:18;34.00;;;17.80;;
13795;SDS011;40911;51.552;9.874;2022-10-31T11:28:55;31.27;;;17.10;;
13795;SDS011;40911;51.552;9.874;2022-10-31T11:31:30;28.65;;;17.30;;
13795;SDS011;40911;51.552;9.874;2022-10-31T11:34:02;33.25;;;17.48;;
13795;SDS011;40911;51.552;9.874;2022-10-31T11:44:18;29.67;;;16.95;;
13795;SDS011;40911;51.552;9.874;2022-10-31T11:46:51;29.70;;;16.58;;
13795;SDS011;40911;51.552;9.874;2022-10-31T11:49:50;34.15;;;17.00;;
13795;SDS011;40911;51.552;9.874;2022-10-31T11:53:09;30.60;;;16.08;;
13795;SDS011;40911;51.552;9.874;2022-10-31T11:55:45;33.85;;;16.85;;
13795;SDS011;40911;51.552;9.874;2022-10-31T11:58:20;31.85;;;16.58;;
13795;SDS011;40911;51.552;9.874;2022-10-31T12:00:50;27.70;;;16.55;;
13795;SDS011;40911;51.552;9.874;2022-10-31T12:03:26;33.60;;;16.52;;
13795;SDS011;40911;51.552;9.874;2022-10-31T12:06:18;33.25;;;16.88;;
13795;SDS011;40911;51.552;9.874;2022-10-31T12:09:15;32.35;;;15.75;;
13795;SDS011;40911;51.552;9.874;2022-10-31T12:15:03;29.20;;;15.23;;
13795;SDS011;40911;51.552;9.874;2022-10-31T12:18:32;26.58;;;14.35;;
13795;SDS011;40911;51.552;9.874;2022-10-31T12:25:27;29.23;;;15.88;;
13795;SDS011;40911;51.552;9.874;2022-10-31T12:28:29;30.08;;;15.35;;
13795;SDS011;40911;51.552;9.874;2022-10-31T12:31:06;26.80;;;14.80;;
13795;SDS011;40911;51.552;9.874;2022-10-31T12:33:55;22.48;;;14.32;;
13795;SDS011;40911;51.552;9.874;2022-10-31T12:36:43;26.40;;;15.63;;
13795;SDS011;40911;51.552;9.874;2022-10-31T12:42:37;28.52;;;15.75;;
13795;SDS011;40911;51.552;9.874;2022-10-31T12:48:49;32.72;;;15.75;;
13795;SDS011;40911;51.552;9.874;2022-10-31T12:51:46;31.90;;;15.50;;
13795;SDS011;40911;51.552;9.874;2022-10-31T12:57:31;29.10;;;14.75;;
13795;SDS011;40911;51.552;9.874;2022-10-31T13:00:00;28.85;;;14.80;;
13795;SDS011;40911;51.552;9.874;2022-10-31T13:02:41;27.30;;;15.23;;
13795;SDS011;40911;51.552;9.874;2022-10-31T13:05:16;28.30;;;14.60;;
13795;SDS011;40911;51.552;9.874;2022-10-31T13:07:43;28.63;;;15.00;;
13795;SDS011;40911;51.552;9.874;2022-10-31T13:13:37;27.45;;;14.57;;
13795;SDS011;40911;51.552;9.874;2022-10-31T13:16:03;25.25;;;14.98;;
13795;SDS011;40911;51.552;9.874;2022-10-31T13:18:31;25.75;;;14.55;;
13795;SDS011;40911;51.552;9.874;2022-10-31T13:20:57;33.22;;;16.02;;
13795;SDS011;40911;51.552;9.874;2022-10-31T13:23:22;25.08;;;15.43;;
13795;SDS011;40911;51.552;9.874;2022-10-31T13:25:50;32.03;;;15.70;;
13795;SDS011;40911;51.552;9.874;2022-10-31T13:28:19;27.25;;;14.77;;
13795;SDS011;40911;51.552;9.874;2022-10-31T13:30:50;29.42;;;16.35;;
13795;SDS011;40911;51.552;9.874;2022-10-31T13:33:14;30.70;;;16.88;;
13795;SDS011;40911;51.552;9.874;2022-10-31T13:35:40;28.65;;;16.05;;
13795;SDS011;40911;51.552;9.874;2022-10-31T13:38:14;25.60;;;15.95;;
13795;SDS011;40911;51.552;9.874;2022-10-31T13:40:44;31.77;;;17.58;;
13795;SDS011;40911;51.552;9.874;2022-10-31T13:43:14;29.23;;;17.00;;
13795;SDS011;40911;51.552;9.874;2022-10-31T13:45:53;26.13;;;15.48;;
13795;SDS011;40911;51.552;9.874;2022-10-31T13:48:33;30.85;;;15.98;;
13795;SDS011;40911;51.552;9.874;2022-10-31T13:51:04;30.60;;;15.32;;
13795;SDS011;40911;51.552;9.874;2022-10-31T13:53:35;27.85;;;14.95;;
13795;SDS011;40911;51.552;9.874;2022-10-31T13:56:10;29.05;;;16.05;;
13795;SDS011;40911;51.552;9.874;2022-10-31T13:58:40;31.85;;;14.52;;
13795;SDS011;40911;51.552;9.874;2022-10-31T14:01:16;28.60;;;15.13;;
13795;SDS011;40911;51.552;9.874;2022-10-31T14:03:41;28.73;;;14.57;;
13795;SDS011;40911;51.552;9.874;2022-10-31T14:06:05;27.48;;;15.13;;
13795;SDS011;40911;51.552;9.874;2022-10-31T14:08:29;25.50;;;14.90;;
13795;SDS011;40911;51.552;9.874;2022-10-31T14:10:54;27.48;;;15.40;;
13795;SDS011;40911;51.552;9.874;2022-10-31T14:13:20;25.42;;;15.30;;
13795;SDS011;40911;51.552;9.874;2022-10-31T14:15:56;25.98;;;14.95;;
13795;SDS011;40911;51.552;9.874;2022-10-31T14:18:28;27.33;;;14.98;;
13795;SDS011;40911;51.552;9.874;2022-10-31T14:21:01;25.02;;;15.32;;
13795;SDS011;40911;51.552;9.874;2022-10-31T14:23:38;26.75;;;15.00;;
13795;SDS011;40911;51.552;9.874;2022-10-31T14:26:17;28.40;;;14.70;;
13795;SDS011;40911;51.552;9.874;2022-10-31T14:28:48;27.88;;;14.30;;
13795;SDS011;40911;51.552;9.874;2022-10-31T14:31:25;29.75;;;14.48;;
13795;SDS011;40911;51.552;9.874;2022-10-31T14:33:52;24.65;;;15.35;;
13795;SDS011;40911;51.552;9.874;2022-10-31T14:36:17;23.75;;;14.50;;
13795;SDS011;40911;51.552;9.874;2022-10-31T14:38:49;23.42;;;14.57;;
13795;SDS011;40911;51.552;9.874;2022-10-31T14:41:21;27.27;;;15.52;;
13795;SDS011;40911;51.552;9.874;2022-10-31T14:44:00;30.90;;;16.77;;
13795;SDS011;40911;51.552;9.874;2022-10-31T14:46:37;23.70;;;14.00;;
13795;SDS011;40911;51.552;9.874;2022-10-31T14:49:15;25.48;;;14.27;;
13795;SDS011;40911;51.552;9.874;2022-10-31T14:51:47;29.88;;;15.13;;
13795;SDS011;40911;51.552;9.874;2022-10-31T14:54:12;23.55;;;13.43;;
13795;SDS011;40911;51.552;9.874;2022-10-31T14:56:37;29.52;;;13.80;;
13795;SDS011;40911;51.552;9.874;2022-10-31T14:59:07;26.13;;;14.05;;
13795;SDS011;40911;51.552;9.874;2022-10-31T15:01:35;27.65;;;13.88;;
13795;SDS011;40911;51.552;9.874;2022-10-31T15:04:00;27.65;;;13.50;;
13795;SDS011;40911;51.552;9.874;2022-10-31T15:06:25;30.58;;;13.38;;
13795;SDS011;40911;51.552;9.874;2022-10-31T15:08:49;30.88;;;12.70;;
13795;SDS011;40911;51.552;9.874;2022-10-31T15:11:13;21.95;;;12.32;;
13795;SDS011;40911;51.552;9.874;2022-10-31T15:13:41;21.60;;;12.82;;
13795;SDS011;40911;51.552;9.874;2022-10-31T15:16:07;23.65;;;12.15;;
13795;SDS011;40911;51.552;9.874;2022-10-31T15:18:31;20.80;;;12.70;;
13795;SDS011;40911;51.552;9.874;2022-10-31T15:20:54;24.65;;;12.70;;
13795;SDS011;40911;51.552;9.874;2022-10-31T15:23:20;30.60;;;12.20;;
13795;SDS011;40911;51.552;9.874;2022-10-31T15:25:43;18.33;;;11.07;;
13795;SDS011;40911;51.552;9.874;2022-10-31T15:28:13;24.60;;;11.77;;
13795;SDS011;40911;51.552;9.874;2022-10-31T15:30:35;21.10;;;11.57;;
13795;SDS011;40911;51.552;9.874;2022-10-31T15:32:59;22.45;;;11.07;;
13795;SDS011;40911;51.552;9.874;2022-10-31T15:35:22;24.52;;;12.80;;
13795;SDS011;40911;51.552;9.874;2022-10-31T15:37:45;22.60;;;11.55;;
13795;SDS011;40911;51.552;9.874;2022-10-31T15:40:12;18.67;;;10.45;;
13795;SDS011;40911;51.552;9.874;2022-10-31T15:42:39;17.05;;;10.38;;
13795;SDS011;40911;51.552;9.874;2022-10-31T15:45:02;21.20;;;10.68;;
13795;SDS011;40911;51.552;9.874;2022-10-31T15:47:27;20.95;;;10.65;;
13795;SDS011;40911;51.552;9.874;2022-10-31T15:49:52;18.98;;;10.38;;
13795;SDS011;40911;51.552;9.874;2022-10-31T15:52:17;22.80;;;10.45;;
13795;SDS011;40911;51.552;9.874;2022-10-31T15:54:47;18.02;;;10.05;;
13795;SDS011;40911;51.552;9.874;2022-10-31T15:57:11;17.90;;;9.55;;
13795;SDS011;40911;51.552;9.874;2022-10-31T15:59:33;17.23;;;10.15;;
13795;SDS011;40911;51.552;9.874;2022-10-31T16:01:58;28.65;;;13.10;;
13795;SDS011;40911;51.552;9.874;2022-10-31T16:04:21;20.13;;;13.13;;
13795;SDS011;40911;51.552;9.874;2022-10-31T16:06:51;22.17;;;12.05;;
13795;SDS011;40911;51.552;9.874;2022-10-31T16:09:20;17.45;;;10.50;;
13795;SDS011;40911;51.552;9.874;2022-10-31T16:11:43;18.15;;;9.70;;
13795;SDS011;40911;51.552;9.874;2022-10-31T16:14:05;16.27;;;9.32;;
13795;SDS011;40911;51.552;9.874;2022-10-31T16:16:39;20.70;;;10.20;;
13795;SDS011;40911;51.552;9.874;2022-10-31T16:19:04;16.77;;;9.02;;
13795;SDS011;40911;51.552;9.874;2022-10-31T16:21:33;18.63;;;9.05;;
13795;SDS011;40911;51.552;9.874;2022-10-31T16:23:59;19.33;;;9.50;;
13795;SDS011;40911;51.552;9.874;2022-10-31T16:26:23;17.67;;;9.40;;
13795;SDS011;40911;51.552;9.874;2022-10-31T16:28:50;21.08;;;9.30;;
13795;SDS011;40911;51.552;9.874;2022-10-31T16:31:13;28.13;;;10.77;;
13795;SDS011;40911;51.552;9.874;2022-10-31T16:33:36;21.23;;;11.00;;
13795;SDS011;40911;51.552;9.874;2022-10-31T16:38:52;22.80;;;11.05;;
13795;SDS011;40911;51.552;9.874;2022-10-31T16:41:16;18.73;;;10.40;;
13795;SDS011;40911;51.552;9.874;2022-10-31T16:43:37;17.88;;;9.82;;
13795;SDS011;40911;51.552;9.874;2022-10-31T16:48:21;19.40;;;10.00;;
13795;SDS011;40911;51.552;9.874;2022-10-31T16:50:43;18.45;;;9.65;;
13795;SDS011;40911;51.552;9.874;2022-10-31T16:53:06;15.00;;;8.10;;
13795;SDS011;40911;51.552;9.874;2022-10-31T16:55:28;21.52;;;9.35;;
13795;SDS011;40911;51.552;9.874;2022-10-31T16:57:52;19.17;;;9.68;;
13795;SDS011;40911;51.552;9.874;2022-10-31T17:00:16;16.42;;;8.80;;
13795;SDS011;40911;51.552;9.874;2022-10-31T17:02:39;17.65;;;9.48;;
13795;SDS011;40911;51.552;9.874;2022-10-31T17:05:02;20.38;;;9.27;;
13795;SDS011;40911;51.552;9.874;2022-10-31T17:07:24;17.73;;;9.30;;
13795;SDS011;40911;51.552;9.874;2022-10-31T17:12:09;16.45;;;8.55;;
13795;SDS011;40911;51.552;9.874;2022-10-31T17:14:39;18.85;;;9.50;;
13795;SDS011;40911;51.552;9.874;2022-10-31T17:17:02;23.52;;;10.38;;